Zhe Pu Tuo 2012 — BKRA5 — position and weather

sailwx.info

Track history (hours):
 
Tides and Currents Weather Stations Pressure Air Temp Water Temp Dewpoint Dewpoint Depression Visibility Wind Speed Wind Dir Waves Ship Positions

Zhe Pu Tuo 2012

Last reported at 2017-Aug-19 11:00 UTC. Time now 2017-Aug-19 11:09 UTC.
Position N 38°59' E 117°43'.

Length 58 m; draft 4.2 m.

Type: Tug. MMSI: 412763040.

Date/timePositionNaut miles runAvg speedWind from/ knotsBaromVisibWave heightAir tempDewpointWater temp
2017-Aug-19 11:00N 38°59' E 117°43'0 0.0
2017-Aug-19 10:30N 38°59' E 117°43'1 2.7
2017-Aug-19 10:00N 38°59' E 117°45'4 8.3
2017-Aug-19 09:30N 38°58' E 117°50'  
2017-Aug-13 04:02N 38°58' E 117°51'1 8.4
2017-Aug-13 03:58N 38°58' E 117°51'4 7.9
2017-Aug-13 03:30N 38°58' E 117°46'2 4.2
2017-Aug-13 03:00N 38°59' E 117°44'0 0.0
2017-Aug-13 02:30N 38°59' E 117°44'0 0.4
2017-Aug-13 02:00N 38°59' E 117°43'0 0.0
2017-Aug-13 01:30N 38°59' E 117°43'0 0.0
2017-Aug-13 01:00N 38°59' E 117°43'0 0.0
2017-Aug-13 00:30N 38°59' E 117°43'0 0.0
2017-Aug-13 00:00N 38°59' E 117°43'0 0.0
2017-Aug-12 23:30N 38°59' E 117°43'0 0.0
2017-Aug-12 23:00N 38°59' E 117°43'0 0.0
2017-Aug-12 22:30N 38°59' E 117°43'0 0.0
2017-Aug-12 22:00N 38°59' E 117°43'0 0.0
2017-Aug-12 21:30N 38°59' E 117°43'0 0.0
2017-Aug-12 21:00N 38°59' E 117°43'0 0.0
2017-Aug-12 20:30N 38°59' E 117°43'0 0.0
2017-Aug-12 20:00N 38°59' E 117°43'0 0.0
2017-Aug-12 19:30N 38°59' E 117°43'0 0.0
2017-Aug-12 19:00N 38°59' E 117°43'0 0.0
2017-Aug-12 18:30N 38°59' E 117°43'0 0.0
2017-Aug-12 18:00N 38°59' E 117°43'0 0.0
2017-Aug-12 17:30N 38°59' E 117°43'0 0.0
2017-Aug-12 17:00N 38°59' E 117°43'0 0.0
2017-Aug-12 16:30N 38°59' E 117°43'0 0.0
2017-Aug-12 16:00N 38°59' E 117°43'0 0.0
2017-Aug-12 15:30N 38°59' E 117°43'0 0.0
2017-Aug-12 15:00N 38°59' E 117°43'0 0.0
2017-Aug-12 14:30N 38°59' E 117°43'0 0.0
2017-Aug-12 14:00N 38°59' E 117°43'0 0.0
2017-Aug-12 13:30N 38°59' E 117°43'0 0.0
2017-Aug-12 13:00N 38°59' E 117°43'0 0.0
2017-Aug-12 12:30N 38°59' E 117°43'0 0.0
2017-Aug-12 12:00N 38°59' E 117°43'0 0.0
2017-Aug-12 11:30N 38°59' E 117°43'0 0.0
2017-Aug-12 11:00N 38°59' E 117°43'0 0.0
2017-Aug-12 10:30N 38°59' E 117°43'0 0.0
2017-Aug-12 10:00N 38°59' E 117°43'0 0.0
2017-Aug-12 09:30N 38°59' E 117°43'0 0.0
2017-Aug-12 09:00N 38°59' E 117°43'0 0.0
2017-Aug-12 08:30N 38°59' E 117°43'0 0.0
2017-Aug-12 08:00N 38°59' E 117°43'0 0.0
2017-Aug-12 07:30N 38°59' E 117°43'0 0.0
2017-Aug-12 06:59N 38°59' E 117°43'0 0.0
2017-Aug-12 06:30N 38°59' E 117°43'0 0.0
2017-Aug-12 06:00N 38°59' E 117°43'0 0.0
2017-Aug-12 05:31N 38°59' E 117°43'0 0.0
2017-Aug-12 05:01N 38°59' E 117°43'0 0.0
2017-Aug-12 04:30N 38°59' E 117°43'0 0.0
2017-Aug-12 04:01N 38°59' E 117°43'0 0.0
2017-Aug-12 03:30N 38°59' E 117°43'0 0.0
2017-Aug-12 03:00N 38°59' E 117°43'0 0.0
2017-Aug-12 02:30N 38°59' E 117°43'0 0.0
2017-Aug-12 02:00N 38°59' E 117°43'0 0.0
2017-Aug-12 01:30N 38°59' E 117°43'0 0.0
2017-Aug-12 01:00N 38°59' E 117°43'0 0.0
2017-Aug-12 00:30N 38°59' E 117°43'0 0.0
2017-Aug-12 00:00N 38°59' E 117°43'0 0.0
2017-Aug-11 23:30N 38°59' E 117°43'0 0.0
2017-Aug-11 23:00N 38°59' E 117°43'0 0.0
2017-Aug-11 22:31N 38°59' E 117°43'2 4.0
2017-Aug-11 22:01N 38°58' E 117°46'4 8.4
2017-Aug-11 21:31N 38°58' E 117°51'50 2.0
2017-Aug-10 20:50N 39°05' E 118°55'0 0.0
2017-Aug-10 20:27N 39°05' E 118°55'  
Track history (hours):
 
Tides and Currents Weather Stations Pressure Air Temp Water Temp Dewpoint Dewpoint Depression Visibility Wind Speed Wind Dir Waves Ship Positions

Zhe Pu Tuo 2012

Last reported at 2017-Aug-19 11:00 UTC. Time now 2017-Aug-19 11:09 UTC.
Position N 38°59' E 117°43'.

Length 58 m; draft 4.2 m.

Type: Tug. MMSI: 412763040.

Date/timePositionNaut miles runAvg speedWind from/ knotsBaromVisibWave heightAir tempDewpointWater temp
2017-Aug-19 11:00N 38°59' E 117°43'0 0.0
2017-Aug-19 10:30N 38°59' E 117°43'1 2.7
2017-Aug-19 10:00N 38°59' E 117°45'4 8.3
2017-Aug-19 09:30N 38°58' E 117°50'  
2017-Aug-13 04:02N 38°58' E 117°51'1 8.4
2017-Aug-13 03:58N 38°58' E 117°51'4 7.9
2017-Aug-13 03:30N 38°58' E 117°46'2 4.2
2017-Aug-13 03:00N 38°59' E 117°44'0 0.0
2017-Aug-13 02:30N 38°59' E 117°44'0 0.4
2017-Aug-13 02:00N 38°59' E 117°43'0 0.0
2017-Aug-13 01:30N 38°59' E 117°43'0 0.0
2017-Aug-13 01:00N 38°59' E 117°43'0 0.0
2017-Aug-13 00:30N 38°59' E 117°43'0 0.0
2017-Aug-13 00:00N 38°59' E 117°43'0 0.0
2017-Aug-12 23:30N 38°59' E 117°43'0 0.0
2017-Aug-12 23:00N 38°59' E 117°43'0 0.0
2017-Aug-12 22:30N 38°59' E 117°43'0 0.0
2017-Aug-12 22:00N 38°59' E 117°43'0 0.0
2017-Aug-12 21:30N 38°59' E 117°43'0 0.0
2017-Aug-12 21:00N 38°59' E 117°43'0 0.0
2017-Aug-12 20:30N 38°59' E 117°43'0 0.0
2017-Aug-12 20:00N 38°59' E 117°43'0 0.0
2017-Aug-12 19:30N 38°59' E 117°43'0 0.0
2017-Aug-12 19:00N 38°59' E 117°43'0 0.0
2017-Aug-12 18:30N 38°59' E 117°43'0 0.0
2017-Aug-12 18:00N 38°59' E 117°43'0 0.0
2017-Aug-12 17:30N 38°59' E 117°43'0 0.0
2017-Aug-12 17:00N 38°59' E 117°43'0 0.0
2017-Aug-12 16:30N 38°59' E 117°43'0 0.0
2017-Aug-12 16:00N 38°59' E 117°43'0 0.0
2017-Aug-12 15:30N 38°59' E 117°43'0 0.0
2017-Aug-12 15:00N 38°59' E 117°43'0 0.0
2017-Aug-12 14:30N 38°59' E 117°43'0 0.0
2017-Aug-12 14:00N 38°59' E 117°43'0 0.0
2017-Aug-12 13:30N 38°59' E 117°43'0 0.0
2017-Aug-12 13:00N 38°59' E 117°43'0 0.0
2017-Aug-12 12:30N 38°59' E 117°43'0 0.0
2017-Aug-12 12:00N 38°59' E 117°43'0 0.0
2017-Aug-12 11:30N 38°59' E 117°43'0 0.0
2017-Aug-12 11:00N 38°59' E 117°43'0 0.0
2017-Aug-12 10:30N 38°59' E 117°43'0 0.0
2017-Aug-12 10:00N 38°59' E 117°43'0 0.0
2017-Aug-12 09:30N 38°59' E 117°43'0 0.0
2017-Aug-12 09:00N 38°59' E 117°43'0 0.0
2017-Aug-12 08:30N 38°59' E 117°43'0 0.0
2017-Aug-12 08:00N 38°59' E 117°43'0 0.0
2017-Aug-12 07:30N 38°59' E 117°43'0 0.0
2017-Aug-12 06:59N 38°59' E 117°43'0 0.0
2017-Aug-12 06:30N 38°59' E 117°43'0 0.0
2017-Aug-12 06:00N 38°59' E 117°43'0 0.0
2017-Aug-12 05:31N 38°59' E 117°43'0 0.0
2017-Aug-12 05:01N 38°59' E 117°43'0 0.0
2017-Aug-12 04:30N 38°59' E 117°43'0 0.0
2017-Aug-12 04:01N 38°59' E 117°43'0 0.0
2017-Aug-12 03:30N 38°59' E 117°43'0 0.0
2017-Aug-12 03:00N 38°59' E 117°43'0 0.0
2017-Aug-12 02:30N 38°59' E 117°43'0 0.0
2017-Aug-12 02:00N 38°59' E 117°43'0 0.0
2017-Aug-12 01:30N 38°59' E 117°43'0 0.0
2017-Aug-12 01:00N 38°59' E 117°43'0 0.0
2017-Aug-12 00:30N 38°59' E 117°43'0 0.0
2017-Aug-12 00:00N 38°59' E 117°43'0 0.0
2017-Aug-11 23:30N 38°59' E 117°43'0 0.0
2017-Aug-11 23:00N 38°59' E 117°43'0 0.0
2017-Aug-11 22:31N 38°59' E 117°43'2 4.0
2017-Aug-11 22:01N 38°58' E 117°46'4 8.4
2017-Aug-11 21:31N 38°58' E 117°51'50 2.0
2017-Aug-10 20:50N 39°05' E 118°55'0 0.0
2017-Aug-10 20:27N 39°05' E 118°55'  

Dump ship's entire track history